Time;durP1;ratioP1;P1;durP2;ratioP2;P2;SDS_P1;SDS_P2;PMS_P1;PMS_P2;Temp;Humidity;BMP_temperature;BMP_pressure;BME280_temperature;BME280_humidity;BME280_pressure;Samples;Min_cycle;Max_cycle;Signal;HPM_P1;HPM_P2
2021/12/07 00:00:29;;;;;;;14.48;10.32;;;2.80;85.50;;;;;;4914801;29;20495;-81
2021/12/07 00:02:55;;;;;;;12.07;8.32;;;2.70;85.50;;;;;;4921805;29;20043;-80
2021/12/07 00:05:21;;;;;;;20.25;9.57;;;2.80;85.90;;;;;;4898857;29;20565;-80
2021/12/07 00:07:48;;;;;;;14.63;10.10;;;2.80;85.80;;;;;;4904172;29;20375;-81
2021/12/07 00:10:15;;;;;;;13.73;8.45;;;2.80;85.90;;;;;;4901038;29;20399;-81
2021/12/07 00:12:44;;;;;;;9.27;4.28;;;2.80;85.90;;;;;;4910522;29;20435;-81
2021/12/07 00:15:13;;;;;;;15.35;9.10;;;2.70;86.20;;;;;;4878202;29;20044;-80
2021/12/07 00:17:39;;;;;;;16.13;10.25;;;2.80;86.20;;;;;;4912004;29;20040;-81
2021/12/07 00:20:09;;;;;;;15.50;10.70;;;2.80;86.10;;;;;;4892627;29;20427;-81
2021/12/07 00:22:35;;;;;;;11.20;6.27;;;2.70;86.60;;;;;;4906791;29;20040;-81
2021/12/07 00:25:01;;;;;;;14.10;9.27;;;2.70;86.80;;;;;;4892261;29;20083;-80
2021/12/07 00:27:26;;;;;;;7.65;4.57;;;2.70;87.20;;;;;;4910231;29;20048;-79
2021/12/07 00:29:52;;;;;;;15.48;8.90;;;2.70;86.80;;;;;;4909795;29;20452;-79
2021/12/07 00:32:30;;;;;;;13.05;9.50;;;2.70;87.30;;;;;;4909519;29;20043;-79
2021/12/07 00:37:44;;;;;;;8.05;5.55;;;2.70;88.00;;;;;;4909193;29;20597;-78
2021/12/07 00:40:13;;;;;;;15.57;9.05;;;2.50;88.20;;;;;;4910561;29;20048;-79
2021/12/07 00:42:39;;;;;;;15.02;10.43;;;2.60;88.50;;;;;;4909680;29;20083;-80
2021/12/07 00:45:08;;;;;;;12.77;8.98;;;2.50;88.70;;;;;;4877564;29;20051;-79
2021/12/07 00:47:34;;;;;;;21.38;11.50;;;2.50;88.60;;;;;;4893331;29;20048;-80
2021/12/07 00:50:01;;;;;;;18.33;10.57;;;2.40;88.90;;;;;;4909025;29;20871;-80
2021/12/07 00:52:26;;;;;;;10.05;6.20;;;2.40;89.10;;;;;;4910782;29;20064;-79
2021/12/07 00:54:53;;;;;;;12.57;9.18;;;2.30;89.20;;;;;;4908238;29;20782;-80
2021/12/07 00:57:20;;;;;;;14.77;9.35;;;2.40;89.40;;;;;;4910519;29;20036;-79
2021/12/07 00:59:46;;;;;;;9.38;6.97;;;2.40;89.30;;;;;;4909489;29;20096;-79
2021/12/07 01:02:12;;;;;;;13.85;8.73;;;2.30;89.40;;;;;;4907402;29;20323;-78
2021/12/07 01:04:38;;;;;;;9.45;6.85;;;2.20;89.50;;;;;;4893707;29;20525;-79
2021/12/07 01:07:11;;;;;;;13.20;8.52;;;2.40;89.60;;;;;;4916449;29;20040;-79
2021/12/07 01:25:55;;;;;;;13.02;8.43;;;2.10;90.10;;;;;;4921300;29;20443;-79
2021/12/07 01:36:05;;;;;;;11.75;8.48;;;2.00;90.60;;;;;;4902620;29;20502;-78
2021/12/07 01:39:34;;;;;;;12.07;9.15;;;2.00;90.60;;;;;;4911790;29;20048;-79
2021/12/07 02:00:13;;;;;;;11.75;9.88;;;1.90;90.80;;;;;;4911783;29;20048;-80
2021/12/07 02:02:39;;;;;;;11.38;7.70;;;1.80;90.80;;;;;;4913007;29;20054;-79
2021/12/07 02:05:06;;;;;;;19.95;10.63;;;1.80;90.80;;;;;;4911942;29;20048;-80
2021/12/07 02:07:32;;;;;;;11.05;7.38;;;1.80;90.80;;;;;;4910907;29;20122;-79
2021/12/07 02:10:04;;;;;;;12.15;8.40;;;1.70;90.80;;;;;;4897497;29;20148;-80
2021/12/07 02:12:40;;;;;;;15.27;10.07;;;1.70;90.80;;;;;;4924620;29;20082;-80
2021/12/07 02:15:06;;;;;;;13.73;8.52;;;1.70;90.90;;;;;;4913114;29;20074;-79
2021/12/07 02:17:34;;;;;;;9.77;6.63;;;1.70;91.00;;;;;;4911039;29;20529;-79
2021/12/07 02:19:59;;;;;;;11.25;8.77;;;1.60;91.00;;;;;;4927077;29;20044;-80
2021/12/07 02:22:25;;;;;;;11.77;9.00;;;1.70;91.10;;;;;;4912082;29;20044;-79
2021/12/07 02:24:51;;;;;;;12.57;8.82;;;1.60;91.20;;;;;;4911840;29;20399;-80
2021/12/07 02:27:17;;;;;;;15.27;10.63;;;1.60;91.30;;;;;;4908286;29;20840;-79
2021/12/07 02:29:42;;;;;;;13.95;8.98;;;1.50;91.30;;;;;;4911261;29;20040;-78
2021/12/07 02:32:09;;;;;;;13.82;9.65;;;1.60;91.30;;;;;;4895880;29;20384;-79
2021/12/07 02:34:37;;;;;;;12.75;9.77;;;1.60;91.30;;;;;;4924179;29;20136;-79
2021/12/07 02:37:03;;;;;;;10.70;7.72;;;1.60;91.30;;;;;;4912848;29;20048;-80
2021/12/07 02:39:31;;;;;;;10.85;8.27;;;1.50;91.20;;;;;;4921712;29;20075;-79
2021/12/07 02:41:57;;;;;;;13.40;8.38;;;1.40;91.20;;;;;;4894743;29;20040;-80
2021/12/07 02:44:23;;;;;;;14.50;9.38;;;1.40;91.20;;;;;;4912084;29;20067;-79
2021/12/07 02:46:49;;;;;;;10.95;8.18;;;1.30;91.20;;;;;;4911138;29;20491;-79
2021/12/07 02:49:15;;;;;;;13.95;9.52;;;1.30;91.30;;;;;;4912480;29;20044;-80
2021/12/07 02:51:41;;;;;;;13.15;8.35;;;1.30;91.30;;;;;;4909804;29;20060;-79
2021/12/07 02:54:07;;;;;;;16.85;10.25;;;1.30;91.40;;;;;;4895619;29;20064;-80
2021/12/07 02:56:33;;;;;;;14.38;9.30;;;1.20;91.40;;;;;;4893940;29;20416;-80
2021/12/07 02:59:02;;;;;;;14.65;9.65;;;1.20;91.40;;;;;;4911928;29;20499;-80
2021/12/07 03:01:34;;;;;;;8.60;6.45;;;1.20;91.40;;;;;;4894630;29;20180;-80
2021/12/07 03:04:06;;;;;;;11.95;8.40;;;1.10;91.40;;;;;;4910803;29;20040;-80
2021/12/07 03:28:22;;;;;;;9.07;6.88;;;1.30;91.80;;;;;;4881307;29;20052;-82
2021/12/07 03:30:48;;;;;;;12.65;7.53;;;1.20;91.80;;;;;;4909614;29;20040;-82
2021/12/07 03:33:14;;;;;;;9.43;7.70;;;1.10;91.70;;;;;;4923061;29;20040;-83
2021/12/07 03:35:40;;;;;;;13.25;7.43;;;1.10;91.70;;;;;;4910513;29;20048;-83
2021/12/07 03:38:07;;;;;;;11.90;7.97;;;1.10;91.80;;;;;;4910773;29;20095;-83
2021/12/07 03:40:34;;;;;;;11.45;6.93;;;1.10;91.80;;;;;;4893400;29;20044;-83
2021/12/07 03:43:01;;;;;;;9.05;7.28;;;1.10;91.80;;;;;;4909691;29;20082;-83
2021/12/07 03:45:27;;;;;;;12.60;8.40;;;1.10;91.90;;;;;;4917211;29;20051;-83
2021/12/07 03:47:53;;;;;;;8.98;6.65;;;1.10;91.90;;;;;;4916974;29;20054;-82
2021/12/07 03:50:21;;;;;;;9.80;7.60;;;1.10;91.90;;;;;;4909812;29;20044;-82
2021/12/07 03:52:48;;;;;;;10.10;8.25;;;1.20;92.00;;;;;;4910030;29;20060;-82
2021/12/07 03:55:14;;;;;;;12.20;9.55;;;1.20;92.00;;;;;;4910898;29;20060;-81
2021/12/07 03:57:40;;;;;;;11.07;9.18;;;1.20;92.20;;;;;;4911126;29;20474;-81
2021/12/07 04:00:12;;;;;;;10.25;8.02;;;1.20;92.00;;;;;;4908120;29;20052;-80
2021/12/07 04:02:40;;;;;;;16.48;9.18;;;1.30;92.00;;;;;;4910132;29;20399;-80
2021/12/07 04:05:14;;;;;;;6.28;3.97;;;1.30;92.00;;;;;;4908564;29;20052;-79
2021/12/07 04:07:41;;;;;;;10.57;8.15;;;1.30;92.10;;;;;;4905844;29;20495;-80
2021/12/07 04:10:09;;;;;;;10.55;8.73;;;1.40;92.10;;;;;;4909501;29;20048;-79
2021/12/07 04:12:35;;;;;;;13.10;9.75;;;1.40;92.10;;;;;;4896756;29;20043;-80
2021/12/07 04:15:01;;;;;;;10.90;8.45;;;1.40;92.10;;;;;;4926479;29;20046;-79
2021/12/07 04:17:27;;;;;;;12.95;9.32;;;1.40;92.10;;;;;;4914462;29;20044;-79
2021/12/07 04:19:53;;;;;;;11.00;8.73;;;1.40;92.10;;;;;;4916950;29;20533;-79
2021/12/07 04:22:18;;;;;;;13.23;10.45;;;1.40;92.10;;;;;;4926956;29;20131;-80
2021/12/07 04:24:44;;;;;;;12.52;9.90;;;1.40;92.10;;;;;;4916336;29;20166;-79
2021/12/07 04:27:11;;;;;;;11.50;8.25;;;1.40;92.10;;;;;;4927494;29;20044;-78
2021/12/07 04:29:36;;;;;;;14.98;10.88;;;1.50;92.10;;;;;;4913320;29;20139;-79
2021/12/07 04:32:03;;;;;;;17.02;11.82;;;1.50;92.10;;;;;;4917432;29;20198;-79
2021/12/07 04:34:28;;;;;;;15.77;11.82;;;1.50;92.10;;;;;;4884809;29;20055;-79
2021/12/07 04:36:54;;;;;;;15.43;11.02;;;1.50;92.10;;;;;;4897503;29;20047;-79
2021/12/07 04:39:20;;;;;;;13.35;10.68;;;1.50;92.10;;;;;;4891715;29;20052;-79
2021/12/07 04:41:48;;;;;;;16.10;11.35;;;1.50;92.10;;;;;;4905062;29;20066;-79
2021/12/07 04:44:14;;;;;;;16.02;11.20;;;1.50;92.10;;;;;;4920343;29;20043;-79
2021/12/07 04:46:50;;;;;;;17.50;11.35;;;1.50;92.10;;;;;;4910284;29;20050;-79
2021/12/07 05:00:12;;;;;;;12.48;9.52;;;1.60;92.10;;;;;;4923921;29;20054;-78
2021/12/07 05:02:40;;;;;;;12.32;9.27;;;1.60;92.10;;;;;;4914665;29;20083;-78
2021/12/07 05:05:08;;;;;;;16.33;11.15;;;1.60;92.10;;;;;;4895639;29;20048;-79
2021/12/07 05:07:39;;;;;;;16.83;10.45;;;1.60;92.10;;;;;;4924225;29;20510;-78
2021/12/07 05:10:23;;;;;;;16.00;11.57;;;1.60;92.10;;;;;;4916632;29;20119;-78
2021/12/07 05:13:19;;;;;;;16.00;10.63;;;1.60;92.10;;;;;;4913127;29;20048;-78
2021/12/07 05:16:01;;;;;;;17.75;12.00;;;1.60;92.20;;;;;;4914922;29;20480;-78
2021/12/07 05:34:41;;;;;;;14.55;11.18;;;1.70;92.20;;;;;;4913139;29;20052;-78
2021/12/07 05:39:52;;;;;;;19.55;11.65;;;1.60;92.20;;;;;;4911562;29;20123;-78
2021/12/07 05:42:19;;;;;;;15.38;10.02;;;1.60;92.10;;;;;;4913714;29;20533;-78
2021/12/07 05:44:45;;;;;;;14.27;10.43;;;1.50;92.10;;;;;;4911973;29;20056;-78
2021/12/07 05:47:11;;;;;;;16.45;10.63;;;1.40;92.00;;;;;;4907283;29;20402;-78
2021/12/07 05:49:37;;;;;;;14.45;10.73;;;1.30;92.00;;;;;;4912669;29;20059;-78
2021/12/07 05:52:03;;;;;;;13.35;10.70;;;1.30;92.10;;;;;;4911788;29;20063;-78
2021/12/07 05:54:29;;;;;;;14.18;10.70;;;1.30;92.10;;;;;;4913286;29;20415;-78
2021/12/07 05:56:55;;;;;;;14.25;10.73;;;1.30;92.20;;;;;;4895219;29;20048;-78
2021/12/07 05:59:21;;;;;;;13.43;10.30;;;1.30;92.20;;;;;;4913740;29;20510;-78
2021/12/07 06:01:47;;;;;;;13.50;10.95;;;1.30;92.20;;;;;;4911455;29;20789;-78
2021/12/07 06:04:13;;;;;;;19.35;11.82;;;1.40;92.30;;;;;;4912338;29;20472;-78
2021/12/07 06:06:39;;;;;;;13.93;11.30;;;1.30;92.30;;;;;;4910821;29;20036;-77
2021/12/07 06:09:06;;;;;;;15.98;10.27;;;1.40;92.30;;;;;;4912736;29;20054;-78
2021/12/07 06:11:32;;;;;;;13.18;9.70;;;1.30;92.30;;;;;;4903335;29;20039;-77
2021/12/07 06:13:58;;;;;;;14.95;10.60;;;1.30;92.20;;;;;;4917721;29;20142;-77
2021/12/07 06:16:24;;;;;;;14.55;9.70;;;1.30;92.20;;;;;;4913196;29;20048;-78
2021/12/07 06:18:50;;;;;;;13.90;10.55;;;1.20;92.10;;;;;;4911263;29;20096;-78
2021/12/07 06:21:16;;;;;;;18.80;10.77;;;1.10;92.10;;;;;;4916144;29;20043;-78
2021/12/07 06:23:42;;;;;;;12.38;10.40;;;1.00;92.10;;;;;;4921249;29;20344;-78
2021/12/07 06:26:08;;;;;;;16.90;11.38;;;1.00;92.10;;;;;;4912632;29;20131;-78
2021/12/07 06:28:34;;;;;;;14.73;10.32;;;1.00;92.20;;;;;;4917319;29;20036;-78
2021/12/07 06:31:00;;;;;;;14.35;11.27;;;1.00;92.30;;;;;;4900329;29;20107;-78
2021/12/07 06:33:26;;;;;;;12.95;9.98;;;1.10;92.30;;;;;;4908750;29;20071;-78
2021/12/07 06:35:57;;;;;;;17.73;10.27;;;1.10;92.30;;;;;;4905009;29;20486;-78
2021/12/07 06:38:24;;;;;;;16.38;9.98;;;1.00;92.30;;;;;;4912621;29;20039;-78
2021/12/07 06:40:50;;;;;;;14.10;10.15;;;1.00;92.30;;;;;;4902307;29;20056;-78
2021/12/07 06:43:16;;;;;;;12.40;10.32;;;0.90;92.30;;;;;;4912730;29;20104;-78
2021/12/07 06:45:42;;;;;;;12.85;9.60;;;0.90;92.20;;;;;;4919828;29;20043;-78
2021/12/07 06:48:08;;;;;;;14.57;10.15;;;0.80;92.20;;;;;;4899563;29;20103;-79
2021/12/07 06:50:35;;;;;;;15.32;9.30;;;0.80;92.30;;;;;;4903197;29;20044;-78
2021/12/07 06:53:01;;;;;;;13.50;10.00;;;0.80;92.30;;;;;;4909613;29;20522;-79
2021/12/07 06:55:27;;;;;;;12.23;9.13;;;0.80;92.30;;;;;;4912919;29;20055;-79
2021/12/07 06:57:53;;;;;;;18.75;10.40;;;0.70;92.30;;;;;;4894151;29;20044;-78
2021/12/07 07:00:20;;;;;;;10.95;8.90;;;0.70;92.30;;;;;;4912149;29;20517;-78
2021/12/07 07:02:46;;;;;;;15.38;9.07;;;0.70;92.30;;;;;;4902343;29;20143;-78
2021/12/07 07:05:13;;;;;;;14.70;9.57;;;0.70;92.40;;;;;;4907454;29;20055;-78
2021/12/07 07:07:41;;;;;;;13.95;9.52;;;0.70;92.40;;;;;;4902122;29;20525;-78
2021/12/07 07:10:08;;;;;;;12.38;9.15;;;0.70;92.40;;;;;;4916923;29;20063;-78
2021/12/07 07:12:34;;;;;;;12.43;8.68;;;0.60;92.30;;;;;;4916437;29;20047;-78
2021/12/07 07:15:00;;;;;;;15.00;9.23;;;0.60;92.40;;;;;;4909830;29;20119;-80
2021/12/07 07:17:26;;;;;;;10.63;8.18;;;0.60;92.40;;;;;;4916736;29;20039;-78
2021/12/07 07:19:52;;;;;;;12.38;8.77;;;0.60;92.40;;;;;;4907722;29;20040;-79
2021/12/07 07:22:18;;;;;;;10.55;8.18;;;0.60;92.40;;;;;;4893615;29;20040;-78
2021/12/07 07:24:45;;;;;;;19.08;8.15;;;0.60;92.40;;;;;;4919630;29;20044;-78
2021/12/07 07:27:11;;;;;;;9.52;7.35;;;0.60;92.50;;;;;;4919219;29;20176;-78
2021/12/07 07:29:37;;;;;;;11.15;6.97;;;0.70;92.60;;;;;;4924902;29;20051;-79
2021/12/07 07:32:03;;;;;;;14.55;7.47;;;0.80;92.60;;;;;;4919874;29;20562;-79
2021/12/07 07:34:29;;;;;;;14.13;5.35;;;0.80;92.70;;;;;;4922436;29;20051;-78
2021/12/07 07:36:55;;;;;;;16.40;6.80;;;0.80;92.70;;;;;;4907260;29;20455;-78
2021/12/07 07:39:21;;;;;;;17.27;7.93;;;0.90;92.80;;;;;;4877596;29;20103;-77
2021/12/07 07:41:47;;;;;;;10.40;6.22;;;1.00;92.80;;;;;;4907638;29;20055;-79
2021/12/07 07:44:13;;;;;;;10.43;7.35;;;1.00;92.80;;;;;;4909976;29;20104;-78
2021/12/07 07:46:39;;;;;;;10.25;6.43;;;1.10;93.20;;;;;;4918383;29;20530;-78
2021/12/07 07:49:05;;;;;;;9.35;6.72;;;1.10;92.80;;;;;;4893660;29;20047;-78
2021/12/07 07:51:34;;;;;;;15.70;6.70;;;1.10;92.80;;;;;;4915887;29;20070;-79
2021/12/07 07:54:01;;;;;;;12.57;6.97;;;1.10;92.80;;;;;;4915280;29;20096;-79
2021/12/07 07:56:28;;;;;;;14.82;5.80;;;1.10;92.80;;;;;;4928487;29;20160;-79
2021/12/07 07:58:55;;;;;;;16.80;7.20;;;1.20;92.90;;;;;;4909529;29;20430;-79
2021/12/07 08:01:23;;;;;;;16.73;7.85;;;1.20;92.90;;;;;;4892924;29;20063;-79
2021/12/07 08:03:53;;;;;;;14.68;7.03;;;1.20;92.90;;;;;;4909757;29;20044;-80
2021/12/07 08:06:19;;;;;;;21.30;8.03;;;1.20;92.90;;;;;;4908904;29;20048;-80
2021/12/07 08:08:45;;;;;;;18.25;7.57;;;1.20;92.80;;;;;;4892857;29;20303;-80
2021/12/07 08:11:11;;;;;;;14.80;6.95;;;1.30;92.90;;;;;;4891243;29;20111;-81
2021/12/07 08:13:37;;;;;;;14.27;6.60;;;1.30;92.90;;;;;;4910846;29;20080;-80
2021/12/07 08:16:03;;;;;;;15.82;6.63;;;1.30;92.90;;;;;;4908199;29;20068;-80
2021/12/07 08:18:28;;;;;;;15.43;7.13;;;1.30;92.90;;;;;;4912762;29;20044;-80
2021/12/07 08:20:55;;;;;;;24.15;7.10;;;1.40;92.90;;;;;;4911871;29;20495;-80
2021/12/07 08:23:21;;;;;;;17.25;6.35;;;1.30;92.80;;;;;;4910590;29;20059;-80
2021/12/07 08:25:48;;;;;;;12.23;6.65;;;1.40;92.90;;;;;;4911508;29;20055;-80
2021/12/07 08:28:14;;;;;;;18.92;7.68;;;1.40;92.90;;;;;;4910425;29;20067;-80
2021/12/07 08:30:42;;;;;;;24.48;7.38;;;1.40;93.30;;;;;;4911586;29;20044;-80
2021/12/07 08:33:08;;;;;;;17.60;7.22;;;1.40;92.90;;;;;;4891069;29;20044;-80
2021/12/07 08:35:34;;;;;;;15.45;7.03;;;1.40;92.80;;;;;;4893366;29;20079;-80
2021/12/07 08:38:00;;;;;;;21.80;8.05;;;1.50;92.80;;;;;;4892133;29;20076;-80
2021/12/07 08:40:29;;;;;;;17.42;7.05;;;1.50;92.80;;;;;;4909964;29;20479;-80
2021/12/07 08:42:56;;;;;;;17.40;6.80;;;1.60;92.90;;;;;;4913915;29;20048;-81
2021/12/07 08:45:23;;;;;;;21.63;7.22;;;1.60;92.90;;;;;;4919319;29;20046;-80
2021/12/07 08:47:49;;;;;;;17.63;7.18;;;1.70;92.90;;;;;;4903869;29;20513;-81
2021/12/07 08:50:22;;;;;;;15.73;6.63;;;1.80;92.90;;;;;;4901009;29;20052;-81
2021/12/07 08:52:50;;;;;;;24.13;7.35;;;1.90;92.90;;;;;;4916021;29;20052;-81
2021/12/07 09:00:33;;;;;;;25.58;7.88;;;2.10;92.90;;;;;;4905159;29;20044;-81
2021/12/07 09:02:59;;;;;;;29.05;8.10;;;2.20;92.90;;;;;;4910856;29;20466;-81
2021/12/07 09:05:25;;;;;;;25.48;8.57;;;2.20;92.80;;;;;;4904073;29;20048;-80
2021/12/07 09:07:51;;;;;;;29.58;8.10;;;2.20;92.90;;;;;;4903655;29;20483;-79
2021/12/07 09:10:17;;;;;;;26.73;6.82;;;2.30;92.80;;;;;;4895049;29;20549;-78
2021/12/07 09:12:44;;;;;;;26.08;7.18;;;2.30;92.80;;;;;;4910195;29;20052;-78
2021/12/07 09:15:10;;;;;;;26.75;8.25;;;2.40;92.80;;;;;;4891618;29;20095;-77
2021/12/07 09:17:36;;;;;;;23.88;7.25;;;2.40;92.80;;;;;;4909027;29;20051;-78
2021/12/07 09:20:09;;;;;;;32.90;7.78;;;2.40;92.80;;;;;;4907428;29;20111;-78
2021/12/07 09:22:35;;;;;;;31.95;9.35;;;2.50;92.80;;;;;;4909687;29;20503;-77
2021/12/07 09:25:01;;;;;;;31.27;8.63;;;2.50;92.80;;;;;;4907714;29;20051;-77
2021/12/07 09:27:26;;;;;;;33.97;9.18;;;2.50;92.80;;;;;;4893300;29;20062;-77
2021/12/07 09:29:52;;;;;;;34.28;9.43;;;2.60;92.80;;;;;;4911538;29;20553;-77
2021/12/07 09:32:18;;;;;;;39.30;10.00;;;2.70;92.80;;;;;;4912053;29;20076;-76
2021/12/07 09:34:44;;;;;;;30.23;8.90;;;2.70;92.80;;;;;;4912924;29;20043;-76
2021/12/07 09:37:10;;;;;;;37.63;8.43;;;2.80;92.80;;;;;;4911286;29;20115;-76
2021/12/07 09:39:35;;;;;;;31.17;8.73;;;2.90;92.80;;;;;;4901215;29;20074;-76
2021/12/07 09:42:01;;;;;;;39.40;9.38;;;2.90;92.80;;;;;;4878089;29;20448;-76
2021/12/07 09:44:27;;;;;;;43.63;9.65;;;2.90;92.70;;;;;;4925401;29;20052;-76
2021/12/07 09:46:53;;;;;;;32.33;9.32;;;3.00;92.70;;;;;;4931079;29;20044;-76
2021/12/07 09:49:19;;;;;;;44.88;10.07;;;3.00;92.70;;;;;;4914451;29;20048;-76
2021/12/07 09:51:45;;;;;;;34.38;9.48;;;3.10;92.70;;;;;;4930525;29;20142;-76
2021/12/07 09:54:11;;;;;;;27.33;7.55;;;3.20;93.10;;;;;;4930610;29;20505;-76
2021/12/07 09:56:38;;;;;;;32.15;10.55;;;3.20;92.60;;;;;;4923392;29;20052;-76
2021/12/07 09:59:06;;;;;;;24.33;8.27;;;3.20;92.50;;;;;;4911274;29;20032;-76
2021/12/07 10:01:32;;;;;;;36.55;10.20;;;3.30;92.50;;;;;;4910489;29;20051;-76
2021/12/07 10:03:58;;;;;;;28.42;9.40;;;3.30;92.50;;;;;;4922397;29;20047;-75
2021/12/07 10:06:26;;;;;;;25.05;8.75;;;3.30;92.50;;;;;;4914178;29;20414;-75
2021/12/07 10:08:52;;;;;;;29.48;10.20;;;3.50;92.40;;;;;;4914445;29;20119;-76
2021/12/07 10:11:17;;;;;;;31.45;9.13;;;3.40;92.30;;;;;;4912280;29;20575;-76
2021/12/07 10:13:46;;;;;;;39.22;10.75;;;3.40;92.30;;;;;;4897116;29;20044;-75
2021/12/07 10:16:15;;;;;;;49.00;12.57;;;3.50;92.30;;;;;;4909877;29;20040;-76
2021/12/07 10:18:42;;;;;;;37.22;11.73;;;3.50;92.20;;;;;;4910996;29;20048;-75
2021/12/07 10:21:24;;;;;;;47.55;11.93;;;3.50;92.20;;;;;;4893533;29;20803;-76
2021/12/07 10:24:02;;;;;;;41.38;9.95;;;3.50;92.10;;;;;;4911632;29;20056;-76
2021/12/07 10:26:33;;;;;;;39.95;9.93;;;3.60;92.10;;;;;;4912887;29;20067;-76
2021/12/07 10:29:12;;;;;;;38.13;10.70;;;3.60;92.20;;;;;;4892287;29;20111;-76
2021/12/07 10:31:48;;;;;;;37.65;6.50;;;3.70;92.20;;;;;;4911525;29;20124;-76
2021/12/07 10:34:22;;;;;;;29.80;7.57;;;3.80;92.10;;;;;;4893576;29;20048;-76
2021/12/07 10:36:51;;;;;;;28.08;8.43;;;3.80;91.90;;;;;;4911233;29;20040;-76
2021/12/07 10:39:22;;;;;;;34.42;9.05;;;3.80;91.80;;;;;;4909807;29;20489;-76
2021/12/07 10:41:50;;;;;;;;;;;3.80;91.60;;;;;;4908681;29;20119;-76
2021/12/07 10:44:20;;;;;;;30.27;8.27;;;3.80;91.60;;;;;;4907867;29;19923;-76
2021/12/07 10:46:53;;;;;;;;;;;3.90;91.70;;;;;;4908852;29;20391;-76
2021/12/07 10:49:35;;;;;;;46.38;11.27;;;4.00;91.60;;;;;;4894182;29;19923;-76
2021/12/07 10:52:06;;;;;;;44.63;11.65;;;4.20;91.70;;;;;;4910211;29;20138;-76
2021/12/07 10:54:39;;;;;;;48.85;9.38;;;4.50;91.50;;;;;;4910824;29;20060;-76
2021/12/07 10:57:08;;;;;;;34.47;8.68;;;4.60;91.00;;;;;;4920960;29;20059;-76
2021/12/07 10:59:38;;;;;;;37.70;8.52;;;4.70;90.20;;;;;;4897179;29;20046;-76
2021/12/07 11:02:14;;;;;;;36.77;7.77;;;4.70;89.60;;;;;;4912161;29;20451;-75
2021/12/07 11:04:40;;;;;;;30.50;8.80;;;4.60;88.60;;;;;;4915426;29;20364;-76
2021/12/07 11:07:16;;;;;;;28.40;6.85;;;4.50;88.90;;;;;;4912357;29;20059;-76
2021/12/07 11:10:14;;;;;;;23.88;7.97;;;4.50;89.40;;;;;;4896949;29;20048;-76
2021/12/07 11:15:31;;;;;;;26.27;8.15;;;4.60;89.80;;;;;;4911442;29;20048;-76
2021/12/07 11:18:07;;;;;;;24.23;7.50;;;4.70;89.90;;;;;;4894901;29;20838;-76
2021/12/07 11:20:34;;;;;;;12.52;3.80;;;4.70;89.70;;;;;;4908359;29;20581;-75
2021/12/07 11:23:18;;;;;;;14.95;6.15;;;4.80;89.50;;;;;;4911557;29;20040;-76
2021/12/07 11:31:36;;;;;;;;;;;5.00;88.00;;;;;;4918495;29;20051;-76
2021/12/07 11:34:12;;;;;;;22.58;6.90;;;5.00;87.40;;;;;;4897255;29;20000;-76
2021/12/07 11:36:42;;;;;;;19.65;6.13;;;5.00;87.60;;;;;;4916095;29;20035;-76
2021/12/07 11:39:29;;;;;;;34.58;7.97;;;5.00;86.80;;;;;;4924791;29;20052;-76
2021/12/07 11:42:02;;;;;;;27.33;6.30;;;5.10;87.30;;;;;;4908006;29;20099;-76
2021/12/07 11:44:30;;;;;;;22.25;6.13;;;5.10;86.80;;;;;;4912190;29;20055;-76
2021/12/07 11:46:59;;;;;;;23.70;6.50;;;5.20;87.10;;;;;;4902984;29;20048;-76
2021/12/07 11:49:28;;;;;;;33.45;5.70;;;5.20;86.90;;;;;;4925998;29;20490;-75
2021/12/07 11:51:57;;;;;;;14.93;4.32;;;5.30;86.40;;;;;;4917186;29;20043;-75
2021/12/07 11:54:30;;;;;;;26.50;6.28;;;5.30;85.90;;;;;;4913646;29;20079;-76
2021/12/07 11:56:57;;;;;;;20.05;6.45;;;5.30;86.00;;;;;;4912663;29;20039;-76
2021/12/07 11:59:23;;;;;;;33.25;6.65;;;5.30;85.30;;;;;;4913977;29;20047;-76
2021/12/07 12:01:50;;;;;;;20.85;5.03;;;5.40;85.80;;;;;;4913109;29;20130;-76
2021/12/07 12:04:18;;;;;;;21.08;5.07;;;5.40;85.30;;;;;;4917320;29;20436;-76
2021/12/07 12:06:56;;;;;;;15.77;5.25;;;5.50;85.20;;;;;;4916930;29;20044;-76
2021/12/07 12:09:23;;;;;;;18.67;3.65;;;5.50;85.20;;;;;;4908032;29;20055;-75
2021/12/07 12:12:45;;;;;;;17.23;5.18;;;5.60;84.90;;;;;;4909172;29;20047;-76
2021/12/07 12:15:35;;;;;;;21.20;5.28;;;5.60;84.40;;;;;;4851695;29;20049;-76
2021/12/07 12:18:40;;;;;;;23.33;5.38;;;5.70;84.10;;;;;;4908341;29;20044;-76
2021/12/07 12:21:30;;;;;;;15.90;4.88;;;5.70;83.80;;;;;;4903711;29;20051;-76
2021/12/07 12:23:59;;;;;;;15.50;4.43;;;5.60;83.60;;;;;;4889276;29;20044;-76
2021/12/07 12:26:27;;;;;;;13.63;4.40;;;5.60;83.80;;;;;;4906780;29;20621;-76
2021/12/07 12:31:58;;;;;;;15.90;3.97;;;5.60;83.60;;;;;;4909647;29;20445;-77
2021/12/07 12:34:28;;;;;;;9.30;4.00;;;5.60;83.40;;;;;;4907523;29;20484;-76
2021/12/07 12:37:00;;;;;;;12.43;4.47;;;5.70;83.30;;;;;;4891820;29;20044;-77
2021/12/07 12:39:58;;;;;;;17.45;4.97;;;5.70;82.90;;;;;;4890921;29;20055;-76
2021/12/07 12:42:39;;;;;;;22.15;4.95;;;5.60;83.10;;;;;;4910214;29;20048;-76
2021/12/07 12:45:17;;;;;;;22.98;4.38;;;5.70;83.10;;;;;;4910961;29;20180;-79
2021/12/07 12:47:43;;;;;;;16.77;3.85;;;5.80;83.20;;;;;;4909887;29;20044;-76
2021/12/07 12:50:17;;;;;;;23.15;5.18;;;5.80;82.50;;;;;;4893344;29;20055;-77
2021/12/07 12:52:57;;;;;;;19.05;4.68;;;5.80;81.90;;;;;;4922439;29;20060;-76
2021/12/07 12:55:39;;;;;;;30.05;5.45;;;5.80;81.60;;;;;;4901802;29;20047;-76
2021/12/07 12:58:14;;;;;;;15.07;4.30;;;5.90;80.90;;;;;;4915811;29;20413;-76
2021/12/07 13:00:57;;;;;;;14.82;4.18;;;5.90;81.30;;;;;;4905064;29;20039;-76
2021/12/07 13:03:23;;;;;;;17.40;4.45;;;5.80;80.60;;;;;;4887292;29;20040;-77
2021/12/07 13:06:00;;;;;;;15.25;3.95;;;5.80;81.00;;;;;;4924092;29;20048;-76
2021/12/07 13:08:27;;;;;;;21.55;4.20;;;5.70;81.30;;;;;;4925908;29;20054;-76
2021/12/07 13:10:57;;;;;;;22.13;4.18;;;5.70;81.60;;;;;;4913704;29;20040;-76
2021/12/07 13:13:47;;;;;;;18.10;4.35;;;5.70;81.50;;;;;;4911520;29;20052;-77
2021/12/07 13:16:16;;;;;;;;;;;5.60;81.50;;;;;;4912294;29;20048;-77
2021/12/07 13:18:43;;;;;;;11.00;2.90;;;5.60;81.40;;;;;;4913319;29;20025;-77
2021/12/07 13:21:30;;;;;;;16.33;3.53;;;5.50;81.80;;;;;;4911483;29;20580;-77
2021/12/07 13:24:04;;;;;;;15.55;3.63;;;5.50;81.90;;;;;;4897824;29;20883;-77
2021/12/07 13:26:41;;;;;;;28.55;3.58;;;5.50;82.00;;;;;;4912794;29;20043;-77
2021/12/07 13:29:12;;;;;;;16.55;3.60;;;5.40;82.20;;;;;;4924279;29;20063;-77
2021/12/07 13:31:44;;;;;;;14.13;3.58;;;5.40;82.70;;;;;;4923233;29;20123;-77
2021/12/07 13:34:11;;;;;;;19.83;4.38;;;5.40;83.10;;;;;;4912901;29;20531;-77
2021/12/07 13:36:39;;;;;;;15.48;4.38;;;5.40;83.60;;;;;;4926140;29;20103;-78
2021/12/07 13:39:19;;;;;;;25.08;4.57;;;5.40;83.90;;;;;;4912235;29;20055;-77
2021/12/07 13:41:49;;;;;;;17.08;4.30;;;5.30;84.20;;;;;;4914791;29;20048;-77
2021/12/07 13:44:16;;;;;;;17.73;4.22;;;5.30;84.20;;;;;;4916386;29;20056;-78
2021/12/07 13:46:42;;;;;;;18.58;4.50;;;5.30;84.20;;;;;;4920717;29;20087;-78
2021/12/07 13:49:10;;;;;;;24.25;4.75;;;5.20;84.50;;;;;;4911724;29;20127;-78
2021/12/07 13:51:38;;;;;;;22.23;4.43;;;5.20;84.60;;;;;;4927622;29;20406;-77
2021/12/07 13:54:06;;;;;;;16.02;3.88;;;5.20;84.90;;;;;;4913276;29;20036;-78
2021/12/07 13:56:34;;;;;;;16.20;3.72;;;5.10;85.20;;;;;;4919332;29;20126;-78
2021/12/07 13:59:07;;;;;;;14.63;3.75;;;5.10;85.80;;;;;;4916272;29;20127;-78
2021/12/07 14:01:34;;;;;;;18.00;3.42;;;5.00;86.00;;;;;;4899125;29;20051;-78
2021/12/07 14:04:02;;;;;;;12.52;3.72;;;5.00;86.10;;;;;;4917010;29;20028;-78
2021/12/07 14:06:28;;;;;;;16.65;4.20;;;5.00;86.30;;;;;;4915971;29;20043;-78
2021/12/07 14:09:05;;;;;;;14.85;3.90;;;4.90;86.50;;;;;;4912220;29;20046;-78
2021/12/07 14:11:31;;;;;;;17.10;3.83;;;4.90;87.70;;;;;;4904179;29;20047;-78
2021/12/07 14:13:57;;;;;;;13.95;4.20;;;4.80;86.80;;;;;;4895228;29;20056;-78
2021/12/07 14:16:24;;;;;;;7.68;3.75;;;4.80;86.90;;;;;;4921343;29;20131;-78
2021/12/07 14:18:51;;;;;;;16.60;4.38;;;4.80;87.20;;;;;;4909997;29;20232;-78
2021/12/07 14:21:16;;;;;;;14.88;3.40;;;4.70;87.30;;;;;;4923281;29;20410;-78
2021/12/07 14:23:50;;;;;;;19.27;3.92;;;4.70;87.60;;;;;;4911940;29;20047;-78
2021/12/07 14:26:21;;;;;;;20.50;4.70;;;4.70;87.70;;;;;;4911457;29;20047;-78
2021/12/07 14:28:57;;;;;;;15.93;3.83;;;4.60;87.70;;;;;;4920888;29;20036;-78
2021/12/07 14:31:37;;;;;;;21.23;4.15;;;4.60;87.70;;;;;;4919693;29;20044;-78
2021/12/07 14:34:08;;;;;;;14.85;4.40;;;4.50;87.50;;;;;;4919597;29;20040;-78
2021/12/07 14:36:37;;;;;;;18.38;4.13;;;4.50;87.50;;;;;;4915221;29;20079;-78
2021/12/07 14:39:27;;;;;;;15.85;3.78;;;4.50;87.60;;;;;;4893183;29;20036;-78
2021/12/07 14:41:55;;;;;;;19.02;4.60;;;4.40;87.60;;;;;;4892431;29;20122;-78
2021/12/07 14:44:25;;;;;;;18.73;4.05;;;4.40;87.70;;;;;;4917125;29;20442;-78
2021/12/07 14:46:52;;;;;;;11.07;3.87;;;4.40;87.70;;;;;;4911889;29;20047;-78
2021/12/07 14:49:19;;;;;;;14.82;4.38;;;4.30;87.90;;;;;;4897829;29;20040;-77